Portada
METAR-TAF:

METAR-TAF

Aeroports :

Barquisimeto, Veneçuela

latitud: 10-04N, longitud: 069-19W, altitud: 613 m

Observació

L'informe es va fer fa 1 hora i 57 minuts, a les 21:07 UTC
Vent 8 kt del Est/Sud-Est
Temperatura 28°C
Humitat 55%
Pressió 1011 hPa
Visibilitat 10 km o més
Núvols disperses a una alçada de 1600 ft

METAR: SVBM 222107Z 11008KT 9999 SCT016 28/18 Q1011

Hora: 19:04 (23:04 UTC)

Pronòstic

L'informe es va fer fa 11 hores i 4 minuts, a les 12:00 UTC
Pronòstic vàlid del 22 a les 12 UTC al 23 a les 12 UTC
Vent 8 kt del Est/Nord-Est
Visibilitat 10 km o més
Núvols disperses a una alçada de 1600 ft
Evolucionant progressivament
l' 22 a les 20 UTC al 23 a les 00 UTC
Vent 10 kt del Est
Cel ennuvolat a una alçada de 1300 ft

TAF: SVBM 221200Z 2212/2312 07008KT 9999 SCT016 TX33/2218Z TN20/2308Z BECMG 2220/2300 10010KT BKN013

Observacions i pronòstics meteorològics de més de 4000 aeroports (METAR i TAF).

Les estacions disponibles són els punts grocs i vermells al mapa.

Posi el ratolí al punt desitjat per veure el nom de l'estació.

Feu clic per veure les observacions i els pronòstics meteorològics.

Per canviar el mapa: feu clic els botons verds amb una creu de color negre per apropar; al botó verd amb un guió per allunyar la imatge; o en les fletxes verdes per a mapes adjacents.


METAR-TAF: